Time;durP1;ratioP1;P1;durP2;ratioP2;P2;SDS_P1;SDS_P2;PMS_P1;PMS_P2;Temp;Humidity;BMP_temperature;BMP_pressure;BME280_temperature;BME280_humidity;BME280_pressure;Samples;Min_cycle;Max_cycle;Signal;HPM_P1;HPM_P2
2021/12/22 00:00:14;;;;;;;;;56.50;41.25;;;;;;;;5033610;28;45514;-66
2021/12/22 00:02:46;;;;;;;;;49.00;42.67;;;;;;;;5033710;28;45618;-66
2021/12/22 00:05:27;;;;;;;;;53.67;43.67;;;;;;;;5035569;28;46187;-66
2021/12/22 00:07:52;;;;;;;;;56.00;43.33;;;;;;;;5034650;28;45529;-66
2021/12/22 00:10:18;;;;;;;;;62.33;47.33;;;;;;;;5033807;28;45365;-65
2021/12/22 00:12:44;;;;;;;;;60.67;46.67;;;;;;;;5033503;28;45508;-66
2021/12/22 00:15:09;;;;;;;;;58.33;46.67;;;;;;;;5032189;28;45361;-66
2021/12/22 00:17:35;;;;;;;;;63.33;48.00;;;;;;;;5033783;28;45452;-65
2021/12/22 00:20:00;;;;;;;;;65.00;50.67;;;;;;;;5033639;28;45407;-64
2021/12/22 00:22:25;;;;;;;;;61.33;46.67;;;;;;;;5033413;28;45478;-67
2021/12/22 00:24:51;;;;;;;;;59.33;47.00;;;;;;;;5033164;28;47098;-65
2021/12/22 00:27:16;;;;;;;;;52.00;43.67;;;;;;;;5033029;28;45507;-65
2021/12/22 00:29:45;;;;;;;;;54.67;44.00;;;;;;;;5033614;28;45518;-65
2021/12/22 00:32:13;;;;;;;;;43.00;40.00;;;;;;;;5035027;28;45280;-65
2021/12/22 00:34:46;;;;;;;;;52.75;41.00;;;;;;;;5032954;28;46062;-65
2021/12/22 00:37:12;;;;;;;;;55.67;45.00;;;;;;;;5033154;28;45628;-66
2021/12/22 00:39:38;;;;;;;;;61.00;43.50;;;;;;;;5033521;28;45480;-66
2021/12/22 00:42:03;;;;;;;;;57.67;45.33;;;;;;;;5033398;28;45362;-66
2021/12/22 00:44:28;;;;;;;;;53.25;43.75;;;;;;;;5033657;28;46261;-66
2021/12/22 00:46:53;;;;;;;;;54.00;44.25;;;;;;;;5033643;28;45447;-66
2021/12/22 00:49:18;;;;;;;;;47.67;40.33;;;;;;;;5033065;28;45265;-66
2021/12/22 00:51:44;;;;;;;;;52.50;43.50;;;;;;;;5033291;28;45449;-66
2021/12/22 00:54:09;;;;;;;;;53.00;42.50;;;;;;;;5031545;28;46211;-66
2021/12/22 00:56:37;;;;;;;;;53.25;41.75;;;;;;;;5033783;28;45485;-66
2021/12/22 00:59:02;;;;;;;;;49.75;40.25;;;;;;;;5032580;28;45310;-66
2021/12/22 01:01:27;;;;;;;;;48.00;43.75;;;;;;;;5032742;28;45249;-66
2021/12/22 01:03:53;;;;;;;;;55.50;44.00;;;;;;;;5032797;28;45336;-66
2021/12/22 01:06:18;;;;;;;;;59.50;41.25;;;;;;;;5032733;28;45493;-66
2021/12/22 01:08:43;;;;;;;;;54.00;42.00;;;;;;;;5033136;28;45487;-66
2021/12/22 01:11:08;;;;;;;;;44.75;40.00;;;;;;;;5034998;28;45540;-65
2021/12/22 01:13:33;;;;;;;;;49.75;38.50;;;;;;;;5032850;28;45479;-67
2021/12/22 01:15:59;;;;;;;;;47.00;42.50;;;;;;;;5032500;28;45515;-65
2021/12/22 01:18:31;;;;;;;;;46.25;40.25;;;;;;;;5033066;28;45422;-65
2021/12/22 01:21:08;;;;;;;;;47.50;38.00;;;;;;;;5031748;28;45455;-66
2021/12/22 01:23:40;;;;;;;;;51.50;41.75;;;;;;;;5033390;28;47357;-66
2021/12/22 01:26:07;;;;;;;;;53.00;43.25;;;;;;;;5036891;28;45409;-66
2021/12/22 01:28:33;;;;;;;;;53.00;41.50;;;;;;;;5035983;28;45356;-66
2021/12/22 01:31:03;;;;;;;;;51.67;43.67;;;;;;;;5036130;28;45495;-65
2021/12/22 01:33:28;;;;;;;;;47.25;39.00;;;;;;;;5034462;28;47106;-66
2021/12/22 01:35:53;;;;;;;;;36.00;33.50;;;;;;;;5034817;28;45323;-66
2021/12/22 01:38:18;;;;;;;;;44.25;39.00;;;;;;;;5038290;28;45265;-66
2021/12/22 01:40:45;;;;;;;;;47.50;37.75;;;;;;;;5036393;28;45372;-66
2021/12/22 01:43:11;;;;;;;;;45.50;39.00;;;;;;;;5035494;28;46094;-66
2021/12/22 01:45:57;;;;;;;;;57.50;43.25;;;;;;;;5035470;28;45392;-66
2021/12/22 01:51:24;;;;;;;;;59.00;41.75;;;;;;;;5035990;28;45452;-66
2021/12/22 01:53:49;;;;;;;;;56.00;43.00;;;;;;;;5035642;28;46218;-66
2021/12/22 01:56:23;;;;;;;;;53.50;41.00;;;;;;;;5037985;28;45514;-66
2021/12/22 01:58:50;;;;;;;;;51.25;42.00;;;;;;;;5034846;28;45305;-65
2021/12/22 02:01:16;;;;;;;;;55.50;43.75;;;;;;;;5035780;28;45619;-65
2021/12/22 02:03:43;;;;;;;;;52.25;39.50;;;;;;;;5035443;28;45580;-64
2021/12/22 02:06:09;;;;;;;;;44.75;38.75;;;;;;;;5035758;28;45557;-65
2021/12/22 02:08:37;;;;;;;;;57.75;42.00;;;;;;;;5035754;28;45481;-65
2021/12/22 02:11:03;;;;;;;;;51.50;42.00;;;;;;;;5037740;28;45511;-65
2021/12/22 02:13:33;;;;;;;;;44.50;38.25;;;;;;;;5033412;28;46125;-65
2021/12/22 02:16:06;;;;;;;;;43.50;35.25;;;;;;;;5033594;28;45814;-65
2021/12/22 02:18:32;;;;;;;;;40.75;36.75;;;;;;;;5035378;28;45440;-65
2021/12/22 02:20:57;;;;;;;;;44.00;37.75;;;;;;;;5034982;28;45574;-65
2021/12/22 02:23:23;;;;;;;;;32.25;28.00;;;;;;;;5036176;28;45516;-66
2021/12/22 02:25:50;;;;;;;;;34.75;25.75;;;;;;;;5035523;28;45416;-66
2021/12/22 02:28:17;;;;;;;;;43.25;38.25;;;;;;;;5034626;28;45448;-65
2021/12/22 02:30:42;;;;;;;;;33.75;31.25;;;;;;;;5034716;28;45365;-65
2021/12/22 02:38:55;;;;;;;;;35.75;25.25;;;;;;;;5035247;28;45484;-66
2021/12/22 02:41:21;;;;;;;;;48.75;39.00;;;;;;;;5032923;28;45382;-65
2021/12/22 02:43:49;;;;;;;;;45.75;36.50;;;;;;;;5034206;28;46969;-66
2021/12/22 02:46:16;;;;;;;;;41.75;37.50;;;;;;;;5035106;28;45357;-66
2021/12/22 02:48:42;;;;;;;;;40.50;35.75;;;;;;;;5034890;28;45297;-65
2021/12/22 02:51:08;;;;;;;;;48.25;39.00;;;;;;;;5033578;28;45459;-65
2021/12/22 02:53:46;;;;;;;;;44.25;37.50;;;;;;;;5035266;28;46181;-65
2021/12/22 02:56:27;;;;;;;;;44.75;40.00;;;;;;;;5036331;28;45467;-65
2021/12/22 02:59:11;;;;;;;;;49.00;41.25;;;;;;;;5035910;28;45363;-65
2021/12/22 03:04:26;;;;;;;;;49.75;37.75;;;;;;;;5034824;28;45799;-65
2021/12/22 03:09:18;;;;;;;;;45.50;38.00;;;;;;;;5034798;28;45570;-65
2021/12/22 03:11:44;;;;;;;;;50.25;38.25;;;;;;;;5034530;28;45242;-65
2021/12/22 03:14:11;;;;;;;;;43.75;38.75;;;;;;;;5036525;28;46261;-65
2021/12/22 03:16:37;;;;;;;;;42.75;35.00;;;;;;;;5034461;28;45479;-65
2021/12/22 03:19:03;;;;;;;;;41.50;36.00;;;;;;;;5034073;28;45384;-66
2021/12/22 03:21:28;;;;;;;;;39.75;35.00;;;;;;;;5034101;28;45525;-65
2021/12/22 03:23:54;;;;;;;;;48.50;39.25;;;;;;;;5016494;28;47044;-66
2021/12/22 03:26:22;;;;;;;;;40.75;35.75;;;;;;;;5035399;28;45396;-65
2021/12/22 03:28:48;;;;;;;;;46.25;38.00;;;;;;;;5033474;28;45417;-65
2021/12/22 03:31:14;;;;;;;;;55.50;41.00;;;;;;;;5032756;28;45457;-65
2021/12/22 03:33:39;;;;;;;;;48.50;39.75;;;;;;;;5032417;28;46934;-65
2021/12/22 03:36:05;;;;;;;;;46.50;38.00;;;;;;;;5034135;28;45439;-65
2021/12/22 03:38:32;;;;;;;;;46.25;32.75;;;;;;;;5016689;28;45245;-64
2021/12/22 03:40:57;;;;;;;;;42.25;36.00;;;;;;;;5035648;28;45380;-65
2021/12/22 03:43:22;;;;;;;;;47.00;39.50;;;;;;;;5033740;28;45335;-64
2021/12/22 03:45:47;;;;;;;;;43.00;36.50;;;;;;;;5015788;28;45648;-64
2021/12/22 03:48:16;;;;;;;;;43.75;35.00;;;;;;;;5033935;28;45385;-64
2021/12/22 03:50:41;;;;;;;;;43.00;38.50;;;;;;;;5034201;28;45554;-65
2021/12/22 03:53:07;;;;;;;;;38.00;31.75;;;;;;;;5035611;28;46166;-65
2021/12/22 03:55:32;;;;;;;;;55.75;40.25;;;;;;;;5033534;28;45568;-64
2021/12/22 03:57:57;;;;;;;;;53.50;39.25;;;;;;;;5033967;28;45535;-64
2021/12/22 04:00:22;;;;;;;;;51.00;39.00;;;;;;;;5033157;28;45580;-65
2021/12/22 04:02:48;;;;;;;;;46.25;38.50;;;;;;;;5033571;28;46270;-65
2021/12/22 04:05:13;;;;;;;;;47.50;38.75;;;;;;;;5035633;28;45365;-65
2021/12/22 04:07:39;;;;;;;;;44.50;36.00;;;;;;;;5033910;28;45271;-65
2021/12/22 04:10:19;;;;;;;;;51.00;40.25;;;;;;;;5032099;28;45478;-65
2021/12/22 04:12:44;;;;;;;;;51.25;39.00;;;;;;;;5032081;28;45245;-65
2021/12/22 04:15:10;;;;;;;;;51.25;41.25;;;;;;;;5033629;28;45372;-66
2021/12/22 04:17:35;;;;;;;;;42.75;38.50;;;;;;;;5033743;28;45341;-66
2021/12/22 04:20:00;;;;;;;;;50.00;40.00;;;;;;;;5035446;28;45329;-66
2021/12/22 04:22:25;;;;;;;;;30.00;26.50;;;;;;;;5032444;28;47068;-65
2021/12/22 04:24:51;;;;;;;;;45.25;39.75;;;;;;;;5033031;28;47751;-66
2021/12/22 04:27:16;;;;;;;;;49.00;40.00;;;;;;;;5032824;28;45620;-65
2021/12/22 04:29:41;;;;;;;;;42.50;36.50;;;;;;;;5033204;28;45194;-66
2021/12/22 04:32:06;;;;;;;;;36.50;33.25;;;;;;;;5034543;28;47123;-66
2021/12/22 04:34:32;;;;;;;;;46.50;37.50;;;;;;;;5032910;28;45293;-65
2021/12/22 04:36:57;;;;;;;;;58.50;39.00;;;;;;;;5032790;28;45405;-66
2021/12/22 04:39:22;;;;;;;;;43.75;37.25;;;;;;;;5032933;28;45279;-66
2021/12/22 04:41:48;;;;;;;;;49.00;37.00;;;;;;;;5032968;28;46073;-69
2021/12/22 04:44:13;;;;;;;;;53.00;38.00;;;;;;;;5034976;28;45393;-66
2021/12/22 04:46:39;;;;;;;;;42.25;37.50;;;;;;;;5032584;28;45369;-66
2021/12/22 04:49:05;;;;;;;;;47.50;40.00;;;;;;;;5031483;28;45251;-65
2021/12/22 04:51:31;;;;;;;;;40.50;33.50;;;;;;;;5030950;28;46264;-66
2021/12/22 04:56:52;;;;;;;;;44.50;38.00;;;;;;;;4938226;28;45393;-66
2021/12/22 04:59:18;;;;;;;;;44.25;38.50;;;;;;;;4952733;28;45442;-66
2021/12/22 05:01:43;;;;;;;;;52.75;38.50;;;;;;;;4952929;28;50569;-66
2021/12/22 05:04:08;;;;;;;;;44.50;40.00;;;;;;;;4952808;28;45549;-67
2021/12/22 05:06:35;;;;;;;;;47.25;38.25;;;;;;;;4952417;28;45331;-67
2021/12/22 05:09:00;;;;;;;;;53.00;41.00;;;;;;;;4952679;28;45311;-66
2021/12/22 05:11:25;;;;;;;;;53.75;41.00;;;;;;;;4952595;28;45398;-66
2021/12/22 05:13:50;;;;;;;;;40.75;33.25;;;;;;;;4953281;28;45292;-67
2021/12/22 05:16:18;;;;;;;;;46.75;40.00;;;;;;;;4952549;28;45662;-66
2021/12/22 05:19:14;;;;;;;;;55.50;40.75;;;;;;;;4951984;28;45480;-66
2021/12/22 05:21:30;;;;;;;;;49.75;39.75;;;;;;;;4950946;28;46726;-66
2021/12/22 05:23:55;;;;;;;;;50.75;42.00;;;;;;;;4934274;28;45446;-66
2021/12/22 05:26:21;;;;;;;;;50.00;39.75;;;;;;;;4952357;28;45390;-66
2021/12/22 05:28:47;;;;;;;;;45.75;36.25;;;;;;;;4951140;28;45768;-65
2021/12/22 05:31:12;;;;;;;;;41.00;34.00;;;;;;;;4951453;28;45880;-65
2021/12/22 05:33:37;;;;;;;;;63.00;50.67;;;;;;;;5002463;28;45697;-66
2021/12/22 05:36:03;;;;;;;;;53.00;40.75;;;;;;;;5031073;28;45337;-65
2021/12/22 05:38:28;;;;;;;;;48.75;40.00;;;;;;;;5032225;28;45400;-66
2021/12/22 05:40:53;;;;;;;;;42.50;36.00;;;;;;;;5031851;28;46255;-65
2021/12/22 05:43:18;;;;;;;;;48.00;39.25;;;;;;;;5030937;28;45372;-65
2021/12/22 05:45:44;;;;;;;;;50.00;38.00;;;;;;;;5031259;28;45313;-67
2021/12/22 05:48:09;;;;;;;;;42.50;36.50;;;;;;;;5013397;28;45616;-66
2021/12/22 05:50:35;;;;;;;;;51.25;39.75;;;;;;;;5031559;28;45487;-66
2021/12/22 05:53:00;;;;;;;;;47.75;38.00;;;;;;;;5033759;28;45406;-66
2021/12/22 05:55:25;;;;;;;;;41.75;39.00;;;;;;;;5031842;28;45390;-66
2021/12/22 05:57:50;;;;;;;;;45.25;38.75;;;;;;;;5031325;28;45302;-66
2021/12/22 06:00:16;;;;;;;;;49.50;37.25;;;;;;;;5031310;28;45287;-66
2021/12/22 06:02:41;;;;;;;;;48.75;39.50;;;;;;;;5030913;28;45481;-66
2021/12/22 06:05:07;;;;;;;;;41.25;31.25;;;;;;;;5032630;28;45392;-66
2021/12/22 06:07:32;;;;;;;;;57.00;36.50;;;;;;;;5029722;28;45510;-70
2021/12/22 06:09:57;;;;;;;;;54.25;38.75;;;;;;;;5030153;28;46071;-67
2021/12/22 06:12:23;;;;;;;;;59.75;37.25;;;;;;;;5033951;28;45348;-67
2021/12/22 06:14:48;;;;;;;;;58.25;42.75;;;;;;;;5034293;28;45994;-67
2021/12/22 06:17:14;;;;;;;;;51.00;38.00;;;;;;;;5035880;28;45355;-68
2021/12/22 06:19:39;;;;;;;;;49.50;39.25;;;;;;;;5033856;28;46615;-66
2021/12/22 06:22:04;;;;;;;;;42.00;35.50;;;;;;;;5033922;28;45603;-66
2021/12/22 06:24:29;;;;;;;;;47.25;36.00;;;;;;;;5033623;28;45591;-67
2021/12/22 06:26:55;;;;;;;;;52.00;42.00;;;;;;;;5033845;28;45413;-66
2021/12/22 06:29:20;;;;;;;;;49.25;38.75;;;;;;;;5035355;28;45806;-67
2021/12/22 06:31:45;;;;;;;;;57.00;41.75;;;;;;;;5031428;28;45494;-67
2021/12/22 06:34:11;;;;;;;;;47.50;40.00;;;;;;;;5028342;28;45422;-67
2021/12/22 06:36:36;;;;;;;;;55.25;41.50;;;;;;;;5033836;28;45432;-67
2021/12/22 06:39:03;;;;;;;;;44.50;35.50;;;;;;;;5033234;28;45335;-67
2021/12/22 06:41:30;;;;;;;;;34.50;34.25;;;;;;;;5034182;28;45394;-65
2021/12/22 06:43:55;;;;;;;;;44.25;38.25;;;;;;;;5035159;28;45286;-67
2021/12/22 06:46:20;;;;;;;;;48.75;42.25;;;;;;;;5031777;28;45318;-66
2021/12/22 06:48:45;;;;;;;;;42.25;36.00;;;;;;;;5030731;28;47296;-66
2021/12/22 06:51:11;;;;;;;;;45.75;41.25;;;;;;;;5013510;28;45266;-67
2021/12/22 06:53:36;;;;;;;;;55.50;41.75;;;;;;;;5032160;28;46421;-67
2021/12/22 06:56:02;;;;;;;;;48.75;39.50;;;;;;;;5034310;28;45445;-67
2021/12/22 06:58:27;;;;;;;;;56.75;41.75;;;;;;;;5032537;28;46157;-68
2021/12/22 07:00:53;;;;;;;;;45.50;40.25;;;;;;;;5032610;28;45505;-67
2021/12/22 07:03:18;;;;;;;;;48.25;41.00;;;;;;;;5032446;28;45351;-67
2021/12/22 07:05:43;;;;;;;;;49.50;39.50;;;;;;;;5031317;28;45509;-66
2021/12/22 07:08:09;;;;;;;;;40.50;34.75;;;;;;;;5033984;28;45459;-66
2021/12/22 07:10:34;;;;;;;;;50.50;40.50;;;;;;;;5032379;28;45357;-67
2021/12/22 07:12:59;;;;;;;;;45.25;38.00;;;;;;;;5030502;28;45419;-67
2021/12/22 07:15:24;;;;;;;;;42.75;34.75;;;;;;;;5033345;28;45524;-67
2021/12/22 07:17:50;;;;;;;;;49.75;39.25;;;;;;;;5032790;28;45459;-67
2021/12/22 07:20:16;;;;;;;;;56.25;40.25;;;;;;;;5030360;28;45402;-67
2021/12/22 07:22:42;;;;;;;;;54.00;38.50;;;;;;;;5031945;28;45544;-67
2021/12/22 07:25:07;;;;;;;;;43.50;35.00;;;;;;;;5031576;28;45357;-66
2021/12/22 07:27:32;;;;;;;;;48.75;41.00;;;;;;;;5031022;28;46283;-67
2021/12/22 07:29:58;;;;;;;;;47.00;41.25;;;;;;;;5032587;28;45411;-65
2021/12/22 07:32:23;;;;;;;;;51.00;39.75;;;;;;;;5033833;28;45344;-65
2021/12/22 07:35:09;;;;;;;;;52.75;39.75;;;;;;;;5032050;28;45611;-66
2021/12/22 07:37:38;;;;;;;;;49.25;39.50;;;;;;;;5032140;28;47390;-65
2021/12/22 07:40:09;;;;;;;;;55.75;45.50;;;;;;;;5031870;28;45387;-64
2021/12/22 07:42:34;;;;;;;;;56.50;43.50;;;;;;;;5013725;28;45317;-65
2021/12/22 07:45:00;;;;;;;;;39.25;35.25;;;;;;;;5032050;28;45556;-65
2021/12/22 07:47:25;;;;;;;;;48.25;38.75;;;;;;;;5032294;28;46786;-66
2021/12/22 07:49:51;;;;;;;;;51.25;41.00;;;;;;;;5031842;28;45201;-66
2021/12/22 07:52:16;;;;;;;;;48.25;40.25;;;;;;;;5031903;28;45579;-65
2021/12/22 07:54:41;;;;;;;;;44.00;38.75;;;;;;;;5032352;28;45527;-65
2021/12/22 07:57:07;;;;;;;;;58.25;42.00;;;;;;;;5032333;28;46122;-65
2021/12/22 07:59:32;;;;;;;;;36.50;34.75;;;;;;;;5032334;28;45832;-65
2021/12/22 08:01:58;;;;;;;;;54.00;40.25;;;;;;;;5032801;28;45304;-64
2021/12/22 08:04:23;;;;;;;;;52.50;41.50;;;;;;;;5030793;28;45306;-65
2021/12/22 08:06:50;;;;;;;;;52.00;35.00;;;;;;;;5030336;28;46560;-65
2021/12/22 08:09:15;;;;;;;;;59.00;44.00;;;;;;;;5031548;28;45476;-67
2021/12/22 08:11:40;;;;;;;;;58.75;40.50;;;;;;;;5031984;28;45502;-65
2021/12/22 08:14:05;;;;;;;;;52.25;39.50;;;;;;;;5033581;28;45385;-65
2021/12/22 08:16:31;;;;;;;;;50.75;42.00;;;;;;;;5031457;28;46320;-65
2021/12/22 08:18:56;;;;;;;;;50.75;42.75;;;;;;;;5031652;28;45384;-68
2021/12/22 08:21:21;;;;;;;;;54.50;40.75;;;;;;;;5031847;28;45267;-64
2021/12/22 08:23:46;;;;;;;;;55.25;41.50;;;;;;;;5031442;28;45312;-65
2021/12/22 08:26:11;;;;;;;;;57.75;43.75;;;;;;;;5033071;28;46357;-65
2021/12/22 08:28:37;;;;;;;;;47.75;36.75;;;;;;;;5031133;28;45528;-64
2021/12/22 08:31:02;;;;;;;;;48.75;42.00;;;;;;;;5030973;28;45788;-65
2021/12/22 08:33:31;;;;;;;;;53.50;42.25;;;;;;;;5030522;28;45513;-64
2021/12/22 08:38:51;;;;;;;;;45.25;37.75;;;;;;;;5031017;28;45468;-66
2021/12/22 08:41:18;;;;;;;;;52.50;40.25;;;;;;;;5029209;28;45346;-65
2021/12/22 08:43:46;;;;;;;;;51.25;37.75;;;;;;;;5029784;28;45382;-65
2021/12/22 08:46:11;;;;;;;;;46.50;40.25;;;;;;;;5029149;28;45712;-65
2021/12/22 08:48:36;;;;;;;;;56.75;40.25;;;;;;;;5030709;28;45466;-65
2021/12/22 08:51:02;;;;;;;;;49.75;40.00;;;;;;;;5031754;28;45462;-65
2021/12/22 08:53:27;;;;;;;;;46.00;37.00;;;;;;;;5032723;28;45362;-65
2021/12/22 08:55:52;;;;;;;;;48.00;40.75;;;;;;;;5032553;28;47196;-64
2021/12/22 08:58:17;;;;;;;;;58.00;44.33;;;;;;;;5031424;28;45427;-65
2021/12/22 09:00:43;;;;;;;;;52.67;42.00;;;;;;;;5032069;28;45457;-63
2021/12/22 09:03:08;;;;;;;;;56.75;41.50;;;;;;;;5031537;28;45604;-66
2021/12/22 09:05:33;;;;;;;;;58.25;42.75;;;;;;;;5031343;28;46376;-65
2021/12/22 09:07:59;;;;;;;;;57.00;44.00;;;;;;;;5034107;28;45575;-64
2021/12/22 09:10:24;;;;;;;;;55.67;41.00;;;;;;;;5032822;28;45298;-66
2021/12/22 09:12:49;;;;;;;;;65.00;44.67;;;;;;;;5032759;28;45428;-64
2021/12/22 09:15:17;;;;;;;;;60.00;46.75;;;;;;;;5031409;28;46025;-66
2021/12/22 09:17:42;;;;;;;;;58.00;43.25;;;;;;;;5032072;28;45646;-66
2021/12/22 09:20:08;;;;;;;;;55.00;43.33;;;;;;;;5032375;28;45306;-66
2021/12/22 09:22:33;;;;;;;;;59.67;44.67;;;;;;;;5028758;28;45356;-63
2021/12/22 09:24:58;;;;;;;;;57.75;44.75;;;;;;;;5029421;28;45964;-65
2021/12/22 09:27:23;;;;;;;;;61.25;45.25;;;;;;;;5030540;28;45440;-65
2021/12/22 09:29:49;;;;;;;;;59.25;43.25;;;;;;;;5030772;28;45334;-65
2021/12/22 09:32:16;;;;;;;;;62.75;46.75;;;;;;;;5032145;28;45584;-65
2021/12/22 09:34:44;;;;;;;;;59.00;46.00;;;;;;;;5029500;28;46398;-65
2021/12/22 09:37:10;;;;;;;;;57.75;46.00;;;;;;;;5030961;28;45496;-65
2021/12/22 09:39:35;;;;;;;;;59.75;45.75;;;;;;;;5030613;28;45385;-65
2021/12/22 09:42:00;;;;;;;;;54.00;43.00;;;;;;;;5030143;28;45489;-65
2021/12/22 09:44:31;;;;;;;;;53.25;41.00;;;;;;;;5032880;28;45741;-65
2021/12/22 09:46:56;;;;;;;;;60.67;45.33;;;;;;;;5035849;28;45456;-65
2021/12/22 09:52:19;;;;;;;;;47.75;42.00;;;;;;;;4971413;28;45497;-64
2021/12/22 09:54:54;;;;;;;;;48.75;40.00;;;;;;;;4971853;28;45482;-65
2021/12/22 09:57:21;;;;;;;;;57.00;41.33;;;;;;;;4971100;28;45434;-64
2021/12/22 09:59:48;;;;;;;;;59.25;44.25;;;;;;;;4971237;28;45454;-64
2021/12/22 10:02:14;;;;;;;;;60.75;46.50;;;;;;;;4973436;28;45626;-64
2021/12/22 10:04:39;;;;;;;;;51.25;41.00;;;;;;;;4970266;28;46260;-65
2021/12/22 10:07:07;;;;;;;;;46.00;37.25;;;;;;;;4971574;28;45537;-65
2021/12/22 10:09:32;;;;;;;;;57.75;40.75;;;;;;;;4971730;28;45603;-65
2021/12/22 10:11:57;;;;;;;;;55.00;42.25;;;;;;;;4972143;28;45483;-64
2021/12/22 10:14:24;;;;;;;;;66.67;53.67;;;;;;;;4974147;28;45499;-65
2021/12/22 10:16:51;;;;;;;;;59.75;46.00;;;;;;;;4972914;28;45522;-66
2021/12/22 10:19:17;;;;;;;;;56.33;45.67;;;;;;;;4972414;28;45577;-64
2021/12/22 10:21:58;;;;;;;;;45.75;39.25;;;;;;;;4972184;28;45602;-65
2021/12/22 10:24:34;;;;;;;;;59.25;46.50;;;;;;;;4971532;28;45506;-63
2021/12/22 10:27:03;;;;;;;;;60.00;43.75;;;;;;;;4970781;28;45494;-65
2021/12/22 10:29:33;;;;;;;;;54.00;40.75;;;;;;;;5011324;28;45294;-65
2021/12/22 10:32:05;;;;;;;;;60.75;44.50;;;;;;;;5035178;28;45442;-65
2021/12/22 10:34:31;;;;;;;;;50.25;41.50;;;;;;;;5033478;28;47481;-65
2021/12/22 10:36:56;;;;;;;;;50.25;38.00;;;;;;;;5033792;28;45371;-65
2021/12/22 10:39:25;;;;;;;;;53.50;41.75;;;;;;;;5031406;28;45389;-64
2021/12/22 10:41:50;;;;;;;;;55.50;44.00;;;;;;;;5016540;28;45408;-65
2021/12/22 10:44:15;;;;;;;;;56.75;43.00;;;;;;;;5035076;28;45304;-65
2021/12/22 10:46:41;;;;;;;;;50.50;41.25;;;;;;;;5031471;28;45766;-66
2021/12/22 10:49:17;;;;;;;;;45.50;36.50;;;;;;;;5033648;28;45587;-66
2021/12/22 10:51:44;;;;;;;;;57.25;43.25;;;;;;;;5033475;28;47215;-65
2021/12/22 10:54:11;;;;;;;;;57.50;43.25;;;;;;;;5032397;28;46260;-65
2021/12/22 10:56:38;;;;;;;;;47.75;36.25;;;;;;;;5032222;28;45656;-64
2021/12/22 10:59:08;;;;;;;;;50.00;35.25;;;;;;;;5035982;28;45436;-64
2021/12/22 11:01:37;;;;;;;;;61.00;45.25;;;;;;;;5034076;28;45527;-66
2021/12/22 11:04:06;;;;;;;;;55.50;41.00;;;;;;;;5032502;28;46311;-64
2021/12/22 11:06:34;;;;;;;;;63.00;48.00;;;;;;;;5033021;28;45346;-65
2021/12/22 11:09:05;;;;;;;;;75.67;53.33;;;;;;;;5032817;28;45507;-65
2021/12/22 11:11:31;;;;;;;;;56.25;44.50;;;;;;;;5034064;28;45362;-65
2021/12/22 11:14:22;;;;;;;;;62.67;48.00;;;;;;;;5034593;28;45521;-65
2021/12/22 11:16:52;;;;;;;;;44.75;34.00;;;;;;;;5021251;28;45378;-66
2021/12/22 11:19:18;;;;;;;;;56.75;40.25;;;;;;;;5031663;28;45589;-65
2021/12/22 11:21:58;;;;;;;;;60.25;44.50;;;;;;;;5031996;28;45242;-64
2021/12/22 11:24:24;;;;;;;;;57.00;42.25;;;;;;;;5031706;28;45435;-64
2021/12/22 11:26:49;;;;;;;;;58.75;43.50;;;;;;;;5032029;28;45551;-65
2021/12/22 11:29:14;;;;;;;;;52.75;42.00;;;;;;;;5035020;28;45392;-66
2021/12/22 11:31:40;;;;;;;;;63.00;44.00;;;;;;;;5032839;28;45472;-67
2021/12/22 11:34:06;;;;;;;;;60.50;46.50;;;;;;;;5032975;28;45529;-65
2021/12/22 11:36:31;;;;;;;;;60.75;46.25;;;;;;;;5032642;28;45286;-66
2021/12/22 11:38:56;;;;;;;;;53.50;44.75;;;;;;;;5032307;28;45267;-66
2021/12/22 11:41:22;;;;;;;;;58.50;43.50;;;;;;;;5033943;28;45371;-65
2021/12/22 11:43:48;;;;;;;;;64.00;46.50;;;;;;;;5032347;28;47198;-65
2021/12/22 11:46:14;;;;;;;;;65.75;48.00;;;;;;;;5031357;28;45540;-66
2021/12/22 11:48:41;;;;;;;;;57.33;43.67;;;;;;;;5031997;28;45594;-69
2021/12/22 11:51:22;;;;;;;;;62.25;43.75;;;;;;;;5031823;28;45604;-65
2021/12/22 11:54:04;;;;;;;;;63.00;44.25;;;;;;;;5031234;28;46384;-64
2021/12/22 11:56:34;;;;;;;;;63.75;48.00;;;;;;;;5030847;28;45395;-66
2021/12/22 11:58:59;;;;;;;;;56.50;44.00;;;;;;;;5031483;28;45398;-66
2021/12/22 12:01:24;;;;;;;;;55.67;44.00;;;;;;;;5030524;28;45345;-65
2021/12/22 12:03:49;;;;;;;;;56.25;43.75;;;;;;;;5031943;28;45330;-65
2021/12/22 12:06:25;;;;;;;;;73.00;54.33;;;;;;;;5032559;28;45390;-65
2021/12/22 12:08:55;;;;;;;;;62.00;46.75;;;;;;;;5017048;28;45523;-65
2021/12/22 12:11:34;;;;;;;;;59.00;43.25;;;;;;;;5030671;28;45454;-67
2021/12/22 12:14:11;;;;;;;;;59.75;46.00;;;;;;;;5016233;28;47423;-64
2021/12/22 12:22:23;;;;;;;;;57.00;46.00;;;;;;;;5031288;28;45406;-66
2021/12/22 12:24:58;;;;;;;;;63.75;46.00;;;;;;;;5031332;28;45864;-66
2021/12/22 12:27:33;;;;;;;;;56.25;41.25;;;;;;;;5031885;28;45537;-66
2021/12/22 12:30:08;;;;;;;;;59.75;44.25;;;;;;;;5032383;28;45312;-66
2021/12/22 12:32:39;;;;;;;;;53.25;42.50;;;;;;;;5032220;28;45477;-65
2021/12/22 12:35:26;;;;;;;;;66.25;47.50;;;;;;;;5031969;28;46181;-66
2021/12/22 12:38:12;;;;;;;;;59.50;43.75;;;;;;;;5030764;28;45331;-65
2021/12/22 12:41:16;;;;;;;;;62.00;44.00;;;;;;;;5030203;28;45585;-65
2021/12/22 12:46:34;;;;;;;;;61.00;45.25;;;;;;;;5031980;28;45499;-66
2021/12/22 12:49:02;;;;;;;;;58.75;43.50;;;;;;;;5031829;28;45451;-65
2021/12/22 12:51:35;;;;;;;;;55.00;41.75;;;;;;;;5013127;28;45370;-65
2021/12/22 12:54:04;;;;;;;;;69.00;46.50;;;;;;;;5031102;28;45371;-65
2021/12/22 12:56:31;;;;;;;;;50.75;44.50;;;;;;;;5031971;28;45486;-66
2021/12/22 12:58:57;;;;;;;;;53.75;41.50;;;;;;;;5031822;28;45404;-66
2021/12/22 13:01:52;;;;;;;;;58.25;45.75;;;;;;;;5031139;28;45396;-65
2021/12/22 13:04:23;;;;;;;;;63.50;46.25;;;;;;;;4927995;28;45566;-65
2021/12/22 13:06:49;;;;;;;;;54.75;44.00;;;;;;;;4928364;28;45614;-65
2021/12/22 13:09:24;;;;;;;;;60.00;45.33;;;;;;;;4928301;28;45421;-65
2021/12/22 13:12:03;;;;;;;;;56.67;42.67;;;;;;;;4931878;28;45533;-64
2021/12/22 13:17:13;;;;;;;;;63.75;45.25;;;;;;;;4931886;28;45753;-66
2021/12/22 13:19:39;;;;;;;;;56.00;44.25;;;;;;;;4932493;28;45617;-64
2021/12/22 13:22:16;;;;;;;;;52.50;43.00;;;;;;;;4931342;28;45398;-65
2021/12/22 13:24:42;;;;;;;;;57.75;43.50;;;;;;;;4931539;28;45246;-64
2021/12/22 13:27:07;;;;;;;;;48.25;40.75;;;;;;;;4933991;28;47311;-65
2021/12/22 13:29:32;;;;;;;;;46.75;38.75;;;;;;;;4933036;28;45265;-63
2021/12/22 13:32:09;;;;;;;;;59.00;50.00;;;;;;;;4936187;28;45414;-64
2021/12/22 13:34:41;;;;;;;;;56.75;42.00;;;;;;;;4930538;28;45365;-64
2021/12/22 13:37:06;;;;;;;;;56.75;43.00;;;;;;;;4930080;28;47419;-65
2021/12/22 13:39:40;;;;;;;;;55.50;43.00;;;;;;;;4930578;28;45554;-66
2021/12/22 13:42:07;;;;;;;;;54.00;40.50;;;;;;;;5026700;28;45493;-65
2021/12/22 13:44:35;;;;;;;;;61.25;40.75;;;;;;;;5035153;28;45437;-65
2021/12/22 13:47:00;;;;;;;;;54.75;37.50;;;;;;;;5036201;28;46722;-65
2021/12/22 13:49:26;;;;;;;;;61.25;47.00;;;;;;;;5032842;28;45452;-66
2021/12/22 13:51:51;;;;;;;;;62.50;46.25;;;;;;;;5033917;28;45547;-66
2021/12/22 13:54:29;;;;;;;;;55.25;41.75;;;;;;;;5032586;28;45461;-65
2021/12/22 13:57:02;;;;;;;;;53.75;43.75;;;;;;;;5017847;28;45467;-66
2021/12/22 13:59:31;;;;;;;;;56.25;45.00;;;;;;;;5036325;28;45294;-64
2021/12/22 14:01:57;;;;;;;;;50.00;38.25;;;;;;;;5035673;28;45308;-65
2021/12/22 14:04:29;;;;;;;;;49.00;41.00;;;;;;;;5033986;28;45477;-65
2021/12/22 14:06:55;;;;;;;;;63.75;46.75;;;;;;;;5033720;28;46197;-66
2021/12/22 14:09:25;;;;;;;;;63.33;48.00;;;;;;;;5033197;28;45492;-64
2021/12/22 14:12:16;;;;;;;;;58.67;41.00;;;;;;;;5018348;28;45432;-65
2021/12/22 14:14:48;;;;;;;;;54.00;44.25;;;;;;;;5028969;28;45466;-64
2021/12/22 14:17:21;;;;;;;;;52.50;38.50;;;;;;;;5035079;28;46130;-64
2021/12/22 14:19:50;;;;;;;;;53.00;41.75;;;;;;;;5032317;28;45446;-65
2021/12/22 14:22:16;;;;;;;;;60.75;45.75;;;;;;;;5033871;28;45542;-66
2021/12/22 14:24:42;;;;;;;;;61.00;46.25;;;;;;;;5032904;28;45305;-64
2021/12/22 14:27:09;;;;;;;;;55.75;43.50;;;;;;;;5034113;28;46137;-66
2021/12/22 14:29:45;;;;;;;;;51.75;41.50;;;;;;;;5033495;28;45569;-65
2021/12/22 14:32:10;;;;;;;;;55.50;42.50;;;;;;;;5033514;28;45271;-64
2021/12/22 14:34:36;;;;;;;;;62.25;45.75;;;;;;;;5030884;28;45424;-64
2021/12/22 14:37:03;;;;;;;;;60.33;45.67;;;;;;;;5031278;28;46166;-65
2021/12/22 14:39:43;;;;;;;;;62.75;42.75;;;;;;;;5033487;28;45365;-65
2021/12/22 14:42:21;;;;;;;;;58.33;46.33;;;;;;;;5033921;28;45543;-64
2021/12/22 14:44:47;;;;;;;;;48.75;41.00;;;;;;;;5033746;28;45505;-66
2021/12/22 14:47:22;;;;;;;;;60.00;45.25;;;;;;;;5034371;28;46513;-64
2021/12/22 14:49:53;;;;;;;;;47.50;40.50;;;;;;;;5034419;28;45328;-65
2021/12/22 14:52:19;;;;;;;;;59.00;47.67;;;;;;;;5033307;28;45289;-65